Time;durP1;ratioP1;P1;durP2;ratioP2;P2;SDS_P1;SDS_P2;PMS_P1;PMS_P2;Temp;Humidity;BMP_temperature;BMP_pressure;BME280_temperature;BME280_humidity;BME280_pressure;Samples;Min_cycle;Max_cycle;Signal;HPM_P1;HPM_P2
2023/12/30 00:01:58;;;;;;;19.35;13.07;;;;;;;4.58;67.64;99997.12;4445052;32;20164;-76
2023/12/30 00:04:31;;;;;;;20.08;14.75;;;;;;;4.61;66.94;100000.47;4451589;32;20614;-76
2023/12/30 00:07:00;;;;;;;22.67;15.50;;;;;;;4.73;66.47;99993.00;4451609;32;20156;-76
2023/12/30 00:09:30;;;;;;;21.05;15.95;;;;;;;4.57;66.99;99998.06;4451563;32;20140;-75
2023/12/30 00:11:59;;;;;;;17.75;14.85;;;;;;;4.62;66.63;100006.59;4445680;32;20184;-76
2023/12/30 00:14:31;;;;;;;19.65;13.88;;;;;;;4.33;67.20;100002.59;4451526;32;20164;-76
2023/12/30 00:17:01;;;;;;;19.33;14.77;;;;;;;4.34;67.35;100005.12;4451520;32;20148;-76
2023/12/30 00:19:33;;;;;;;17.70;13.50;;;;;;;4.50;66.83;99997.47;4451554;32;20160;-76
2023/12/30 00:22:03;;;;;;;23.55;15.35;;;;;;;4.45;66.28;99996.81;4445196;32;20192;-76
2023/12/30 00:24:34;;;;;;;17.65;13.93;;;;;;;4.39;66.10;99997.91;4451418;32;20183;-76
2023/12/30 00:27:04;;;;;;;21.60;14.25;;;;;;;4.23;66.56;99999.47;4451821;32;20144;-76
2023/12/30 00:29:39;;;;;;;20.30;14.35;;;;;;;4.40;66.25;99998.78;4437223;32;20197;-76
2023/12/30 00:32:08;;;;;;;19.40;14.77;;;;;;;4.39;66.30;100007.56;4444928;32;20164;-76
2023/12/30 00:34:38;;;;;;;17.90;13.65;;;;;;;4.33;66.67;100002.59;4451394;32;20167;-76
2023/12/30 00:37:07;;;;;;;20.88;14.00;;;;;;;4.55;66.14;100002.50;4451431;32;20179;-76
2023/12/30 00:39:40;;;;;;;20.50;14.23;;;;;;;4.49;65.83;99997.53;4450993;32;20132;-76
2023/12/30 00:42:09;;;;;;;18.87;13.88;;;;;;;4.38;66.05;100006.72;4445303;32;20159;-76
2023/12/30 00:44:40;;;;;;;19.85;14.00;;;;;;;4.48;65.93;100001.09;4451284;32;20151;-75
2023/12/30 00:47:13;;;;;;;16.55;12.98;;;;;;;4.27;66.46;100001.06;4451310;32;20160;-75
2023/12/30 00:49:41;;;;;;;18.85;14.57;;;;;;;4.23;66.64;100001.25;4451388;32;20152;-76
2023/12/30 00:52:10;;;;;;;18.62;14.00;;;;;;;4.31;66.30;100007.88;4444895;32;20161;-75
2023/12/30 00:54:40;;;;;;;15.90;13.05;;;;;;;4.01;67.27;100007.38;4451254;32;20539;-76
2023/12/30 00:57:18;;;;;;;18.55;13.98;;;;;;;4.04;67.32;100011.62;4451634;32;20144;-76
2023/12/30 00:59:49;;;;;;;17.87;13.23;;;;;;;4.19;67.09;100003.13;4451149;32;20187;-76
2023/12/30 01:02:18;;;;;;;17.02;13.43;;;;;;;4.10;67.43;100006.16;4444634;32;20128;-75
2023/12/30 01:04:47;;;;;;;18.10;13.57;;;;;;;4.32;66.74;100001.75;4451151;32;20707;-75
2023/12/30 01:07:17;;;;;;;17.80;13.00;;;;;;;4.36;66.23;100012.97;4451209;32;20152;-75
2023/12/30 01:09:46;;;;;;;16.70;11.80;;;;;;;4.17;67.18;100012.84;4451126;32;20164;-76
2023/12/30 01:12:15;;;;;;;19.05;12.93;;;;;;;4.31;67.07;100012.28;4445195;32;20168;-75
2023/12/30 01:14:45;;;;;;;15.40;12.50;;;;;;;4.23;67.24;100012.59;4451062;32;20180;-75
2023/12/30 01:17:16;;;;;;;15.90;12.55;;;;;;;4.23;67.35;100014.38;4451127;32;20172;-76
2023/12/30 01:19:45;;;;;;;20.85;13.23;;;;;;;4.30;67.21;100016.66;4451048;32;20191;-75
2023/12/30 01:22:18;;;;;;;18.12;12.73;;;;;;;4.35;67.14;100016.47;4444730;32;20163;-75
2023/12/30 01:24:47;;;;;;;15.05;11.75;;;;;;;4.24;67.43;100013.44;4450950;32;20152;-75
2023/12/30 01:27:16;;;;;;;14.48;11.60;;;;;;;4.39;67.00;100011.03;4451330;32;20128;-75
2023/12/30 01:29:45;;;;;;;17.17;11.40;;;;;;;4.61;66.05;100007.50;4451000;32;20172;-75
2023/12/30 01:32:18;;;;;;;15.70;11.80;;;;;;;4.48;66.00;100007.19;4444389;32;20543;-75
2023/12/30 01:34:48;;;;;;;18.52;12.88;;;;;;;4.37;65.89;100010.25;4450895;32;20176;-75
2023/12/30 01:37:18;;;;;;;15.95;12.27;;;;;;;4.28;66.09;100015.06;4450895;32;20171;-76
2023/12/30 01:39:47;;;;;;;14.90;11.15;;;;;;;4.45;65.58;100004.69;4450870;32;20144;-75
2023/12/30 01:42:23;;;;;;;17.00;12.27;;;;;;;4.38;65.97;100011.09;4444909;32;20164;-75
2023/12/30 01:44:52;;;;;;;16.20;11.82;;;;;;;4.35;66.03;100001.59;4450627;32;20172;-75
2023/12/30 01:47:23;;;;;;;15.70;11.48;;;;;;;4.35;66.05;99995.50;4450691;32;20156;-76
2023/12/30 01:49:53;;;;;;;15.73;12.15;;;;;;;4.30;66.07;99990.44;4450764;32;20153;-75
2023/12/30 01:52:22;;;;;;;17.95;12.35;;;;;;;4.23;66.26;99993.37;4444125;32;20196;-75
2023/12/30 01:54:51;;;;;;;13.40;11.45;;;;;;;4.38;65.78;99984.88;4450639;32;20525;-75
2023/12/30 01:57:20;;;;;;;17.17;12.48;;;;;;;4.37;65.96;99988.41;4450578;32;20160;-75
2023/12/30 01:59:51;;;;;;;22.05;13.88;;;;;;;4.22;66.15;99989.06;4450961;32;20144;-75
2023/12/30 02:02:21;;;;;;;20.12;13.95;;;;;;;4.11;66.90;99979.00;4443977;32;20529;-75
2023/12/30 02:04:52;;;;;;;17.15;13.18;;;;;;;4.14;66.97;99986.75;4450504;32;20175;-75
2023/12/30 02:07:22;;;;;;;18.27;13.40;;;;;;;4.16;67.07;99980.53;4450467;32;20171;-75
2023/12/30 02:09:52;;;;;;;18.80;13.25;;;;;;;4.10;66.86;99979.94;4450371;32;20148;-75
2023/12/30 02:12:21;;;;;;;19.60;14.07;;;;;;;3.62;68.54;99971.37;4444098;32;20406;-74
2023/12/30 02:14:50;;;;;;;17.25;12.70;;;;;;;3.93;68.18;99975.38;4450641;32;20148;-75
2023/12/30 02:17:20;;;;;;;16.20;13.77;;;;;;;3.79;68.41;99970.69;4450410;32;20183;-75
2023/12/30 02:19:49;;;;;;;18.37;14.02;;;;;;;3.84;68.64;99980.97;4450281;32;20156;-75
2023/12/30 02:22:22;;;;;;;21.27;14.05;;;;;;;3.65;68.93;99960.78;4443856;32;20524;-75
2023/12/30 02:24:53;;;;;;;17.75;12.40;;;;;;;3.84;68.64;99978.37;4450218;32;20143;-75
2023/12/30 02:27:22;;;;;;;18.73;14.02;;;;;;;4.00;68.14;99961.13;4450168;32;20291;-75
2023/12/30 02:29:51;;;;;;;19.55;15.43;;;;;;;3.73;69.71;99970.94;4450503;32;20160;-75
2023/12/30 02:32:21;;;;;;;18.60;13.38;;;;;;;3.85;69.02;99975.69;4443635;32;20168;-75
2023/12/30 02:34:50;;;;;;;20.48;14.87;;;;;;;4.00;68.74;99968.97;4449984;32;20457;-75
2023/12/30 02:37:19;;;;;;;19.48;13.98;;;;;;;3.88;69.61;99975.59;4450091;32;20152;-75
2023/12/30 02:39:48;;;;;;;21.73;13.60;;;;;;;3.95;69.12;99979.63;4450000;32;20506;-75
2023/12/30 02:42:19;;;;;;;18.85;13.75;;;;;;;4.15;67.90;99956.97;4444121;32;20533;-75
2023/12/30 02:44:50;;;;;;;19.05;13.77;;;;;;;3.74;69.15;99974.41;4449830;32;20164;-75
2023/12/30 02:47:20;;;;;;;19.02;14.65;;;;;;;4.04;67.88;99986.28;4449863;32;20163;-75
2023/12/30 02:49:49;;;;;;;22.80;14.87;;;;;;;3.84;69.12;99974.00;4449845;32;20167;-75
2023/12/30 02:52:18;;;;;;;20.37;14.18;;;;;;;3.79;69.30;99969.84;4443475;32;20541;-75
2023/12/30 02:54:47;;;;;;;20.45;14.65;;;;;;;3.79;69.55;99986.41;4449677;32;20468;-75
2023/12/30 02:57:16;;;;;;;17.90;14.65;;;;;;;3.84;69.15;99979.25;4450072;32;20178;-75
2023/12/30 02:59:46;;;;;;;19.55;14.77;;;;;;;3.75;69.51;99978.75;4449790;32;20452;-75
2023/12/30 03:02:16;;;;;;;21.83;14.27;;;;;;;3.78;69.34;99976.84;4443104;32;20180;-75
2023/12/30 03:04:46;;;;;;;24.12;14.02;;;;;;;3.80;69.22;99969.81;4451454;32;20593;-75
2023/12/30 03:07:16;;;;;;;16.70;14.10;;;;;;;3.96;68.69;99964.78;4452039;32;20183;-75
2023/12/30 03:09:45;;;;;;;19.45;12.80;;;;;;;4.23;67.65;99970.63;4451947;32;20162;-75
2023/12/30 03:12:15;;;;;;;21.05;15.27;;;;;;;4.18;67.28;99962.94;4446122;32;20159;-75
2023/12/30 03:14:44;;;;;;;17.70;15.00;;;;;;;4.03;67.89;99973.22;4451808;32;20156;-75
2023/12/30 03:17:14;;;;;;;21.02;14.07;;;;;;;4.25;67.11;99978.44;4451915;32;20163;-75
2023/12/30 03:19:44;;;;;;;18.23;14.25;;;;;;;4.01;67.85;99975.06;4451917;32;20177;-75
2023/12/30 03:22:13;;;;;;;19.70;14.13;;;;;;;3.92;68.00;99981.56;4445612;32;20179;-75
2023/12/30 03:24:44;;;;;;;21.80;15.35;;;;;;;4.03;67.24;99968.84;4452028;32;20172;-75
2023/12/30 03:27:14;;;;;;;19.52;14.65;;;;;;;4.08;66.63;99971.25;4452176;32;20148;-75
2023/12/30 03:29:43;;;;;;;18.98;14.20;;;;;;;4.01;66.85;99972.47;4452051;32;20153;-75
2023/12/30 03:32:12;;;;;;;22.75;15.05;;;;;;;4.17;66.56;99974.38;4445529;32;20210;-75
2023/12/30 03:34:45;;;;;;;19.40;15.07;;;;;;;3.88;67.71;99975.59;4451696;32;20163;-75
2023/12/30 03:37:14;;;;;;;20.73;14.90;;;;;;;3.92;67.75;99974.53;4451909;32;20448;-75
2023/12/30 03:39:43;;;;;;;19.27;14.05;;;;;;;4.09;66.84;99981.69;4451911;32;20537;-75
2023/12/30 03:42:13;;;;;;;17.45;13.82;;;;;;;3.76;68.20;99959.47;4446101;32;20472;-75
2023/12/30 03:44:42;;;;;;;18.80;13.93;;;;;;;3.56;69.49;99976.00;4451792;32;20156;-75
2023/12/30 03:47:12;;;;;;;20.67;14.68;;;;;;;3.18;70.71;99971.31;4451832;32;20163;-75
2023/12/30 03:49:41;;;;;;;21.87;15.23;;;;;;;2.93;72.26;99957.44;4437783;32;20185;-75
2023/12/30 03:52:12;;;;;;;19.80;14.35;;;;;;;3.30;70.60;99975.25;4445567;32;20154;-75
2023/12/30 03:54:42;;;;;;;20.40;14.50;;;;;;;3.50;69.93;99973.62;4451793;32;20175;-75
2023/12/30 03:57:11;;;;;;;19.52;14.25;;;;;;;3.67;69.04;99972.03;4452454;32;20160;-75
2023/12/30 03:59:40;;;;;;;21.00;15.57;;;;;;;3.65;69.64;99976.50;4451718;32;20178;-75
2023/12/30 04:02:09;;;;;;;22.80;13.93;;;;;;;3.79;68.91;99993.44;4445004;32;20155;-76
2023/12/30 04:04:38;;;;;;;17.95;14.43;;;;;;;3.17;71.14;99958.31;4451515;32;20191;-75
2023/12/30 04:07:07;;;;;;;19.35;14.48;;;;;;;3.34;71.01;99979.44;4451553;32;20168;-75
2023/12/30 04:09:38;;;;;;;17.25;13.23;;;;;;;3.38;70.37;99991.50;4451539;32;20163;-75
2023/12/30 04:12:08;;;;;;;16.67;12.93;;;;;;;3.16;71.17;99967.91;4445641;32;20733;-76
2023/12/30 04:14:38;;;;;;;18.02;14.07;;;;;;;3.36;70.58;99966.28;4450995;32;20190;-75
2023/12/30 04:17:08;;;;;;;17.23;13.13;;;;;;;3.73;69.23;99986.69;4436951;32;20607;-75
2023/12/30 04:19:37;;;;;;;19.80;14.05;;;;;;;3.80;68.44;99982.03;4451530;32;20179;-75
2023/12/30 04:22:10;;;;;;;20.85;13.62;;;;;;;3.67;69.15;99981.66;4445500;32;20172;-75
2023/12/30 04:24:41;;;;;;;18.23;13.07;;;;;;;3.56;68.85;99981.22;4437630;32;20144;-75
2023/12/30 04:27:10;;;;;;;19.83;14.65;;;;;;;3.26;70.89;99965.81;4452247;32;20409;-76
2023/12/30 04:29:39;;;;;;;20.60;15.75;;;;;;;3.12;71.63;99986.41;4451607;32;20140;-76
2023/12/30 04:32:09;;;;;;;22.08;14.40;;;;;;;3.30;70.92;99982.25;4445107;32;20196;-75
2023/12/30 04:34:38;;;;;;;22.92;13.82;;;;;;;3.24;71.53;99966.75;4451586;32;20172;-75
2023/12/30 04:37:07;;;;;;;20.17;13.95;;;;;;;3.26;71.26;99989.38;4451804;32;20139;-75
2023/12/30 04:39:36;;;;;;;20.90;15.85;;;;;;;3.56;70.16;99983.84;4451725;32;20410;-75
2023/12/30 04:42:07;;;;;;;19.77;15.27;;;;;;;2.84;73.00;99970.87;4445771;32;20179;-76
2023/12/30 04:44:36;;;;;;;24.25;16.30;;;;;;;3.14;72.41;99997.69;4451782;32;20164;-75
2023/12/30 04:47:09;;;;;;;21.60;16.77;;;;;;;3.35;72.09;99977.69;4451661;32;20155;-76
2023/12/30 04:49:38;;;;;;;20.37;14.85;;;;;;;3.24;73.28;99972.84;4437190;32;20183;-75
2023/12/30 04:52:08;;;;;;;22.23;16.27;;;;;;;3.35;72.69;99993.41;4445038;32;20169;-75
2023/12/30 04:54:37;;;;;;;21.08;16.23;;;;;;;3.45;71.82;100000.00;4451175;32;20160;-75
2023/12/30 04:57:08;;;;;;;22.05;15.60;;;;;;;3.53;72.24;99987.47;4451641;32;20128;-76
2023/12/30 04:59:37;;;;;;;21.17;14.02;;;;;;;3.42;72.45;100006.19;4451501;32;20186;-76
2023/12/30 05:02:06;;;;;;;20.75;14.43;;;;;;;3.66;72.20;100012.25;4444800;32;20171;-76
2023/12/30 05:04:34;;;;;;;18.77;14.18;;;;;;;3.81;71.89;100005.56;4451189;32;20147;-76
2023/12/30 05:07:05;;;;;;;26.23;15.73;;;;;;;4.05;71.03;99998.47;4451176;32;20469;-76
2023/12/30 05:09:35;;;;;;;22.85;15.82;;;;;;;4.10;71.30;100004.38;4451106;32;20140;-75
2023/12/30 05:12:05;;;;;;;19.87;14.57;;;;;;;4.15;71.15;100007.66;4445218;32;20176;-76
2023/12/30 05:14:37;;;;;;;22.70;15.88;;;;;;;4.12;71.46;100002.56;4451030;32;20172;-76
2023/12/30 05:17:06;;;;;;;21.67;15.13;;;;;;;4.03;71.33;100020.41;4451090;32;20155;-76
2023/12/30 05:19:36;;;;;;;21.73;16.20;;;;;;;4.16;71.38;100012.00;4450871;32;20156;-76
2023/12/30 05:22:05;;;;;;;23.52;17.55;;;;;;;4.00;72.37;100004.81;4444650;32;20172;-76
2023/12/30 05:24:34;;;;;;;22.60;17.45;;;;;;;4.24;71.66;100011.69;4450962;32;20179;-75
2023/12/30 05:27:03;;;;;;;21.20;15.77;;;;;;;4.32;71.32;100006.13;4450885;32;20160;-76
2023/12/30 05:29:34;;;;;;;24.60;17.95;;;;;;;4.44;70.95;100010.84;4451009;32;20139;-76
2023/12/30 05:32:05;;;;;;;21.20;15.75;;;;;;;4.28;71.97;100018.53;4444558;32;20152;-76
2023/12/30 05:34:34;;;;;;;25.80;16.95;;;;;;;4.38;71.76;100021.59;4436531;32;20160;-75
2023/12/30 05:37:03;;;;;;;37.83;26.70;;;;;;;4.33;72.51;100018.31;4450786;32;20771;-75
2023/12/30 05:39:33;;;;;;;38.53;26.27;;;;;;;4.28;73.22;100023.75;4450872;32;20159;-76
2023/12/30 05:42:01;;;;;;;29.00;19.92;;;;;;;4.57;72.33;100011.19;4444948;32;20175;-76
2023/12/30 05:44:30;;;;;;;28.08;18.90;;;;;;;4.66;70.61;100021.28;4451029;32;20187;-76
2023/12/30 05:47:02;;;;;;;21.95;17.75;;;;;;;4.92;69.97;100020.16;4450794;32;20457;-76
2023/12/30 05:49:31;;;;;;;27.02;19.12;;;;;;;4.80;70.15;100029.41;4450725;32;20171;-76
2023/12/30 05:52:00;;;;;;;26.75;19.27;;;;;;;4.78;70.11;100019.91;4444393;32;20191;-76
2023/12/30 05:54:30;;;;;;;26.08;18.67;;;;;;;4.54;71.06;100025.28;4450620;32;20659;-75
2023/12/30 05:57:00;;;;;;;25.37;18.02;;;;;;;4.73;70.92;100037.63;4436837;32;20552;-76
2023/12/30 05:59:29;;;;;;;27.83;19.00;;;;;;;4.76;69.76;100037.50;4436468;32;20167;-76
2023/12/30 06:01:59;;;;;;;26.33;19.15;;;;;;;4.77;70.00;100024.28;4444177;32;20167;-76
2023/12/30 06:04:32;;;;;;;24.12;18.58;;;;;;;4.52;70.81;100036.78;4450605;32;20437;-76
2023/12/30 06:07:01;;;;;;;24.08;16.95;;;;;;;4.63;70.07;100040.66;4450738;32;20176;-76
2023/12/30 06:09:30;;;;;;;27.77;20.15;;;;;;;4.38;70.22;100038.19;4450569;32;20183;-75
2023/12/30 06:11:59;;;;;;;23.38;16.48;;;;;;;4.62;69.85;100033.69;4444453;32;20164;-76
2023/12/30 06:14:30;;;;;;;26.48;16.90;;;;;;;4.54;69.99;100045.41;4450375;32;20189;-76
2023/12/30 06:17:02;;;;;;;24.30;17.08;;;;;;;4.50;69.94;100042.06;4436075;32;20451;-76
2023/12/30 06:19:33;;;;;;;24.63;17.67;;;;;;;4.91;68.35;100026.34;4450413;32;20223;-76
2023/12/30 06:22:02;;;;;;;25.33;18.25;;;;;;;4.86;68.53;100038.78;4444216;32;20171;-76
2023/12/30 06:24:32;;;;;;;22.00;16.45;;;;;;;4.77;68.58;100040.06;4436190;32;20177;-76
2023/12/30 06:27:01;;;;;;;24.27;16.62;;;;;;;4.53;69.37;100043.72;4450665;32;20160;-76
2023/12/30 06:29:30;;;;;;;24.10;15.60;;;;;;;4.36;69.58;100045.28;4450465;32;20160;-76
2023/12/30 06:32:01;;;;;;;24.55;18.30;;;;;;;4.68;68.69;100051.81;4444129;32;20176;-76
2023/12/30 06:34:32;;;;;;;20.95;16.98;;;;;;;4.51;68.98;100050.78;4450391;32;20186;-76
2023/12/30 06:37:02;;;;;;;24.65;18.95;;;;;;;4.42;69.37;100057.28;4450208;32;20356;-76
2023/12/30 06:39:32;;;;;;;23.52;17.95;;;;;;;4.25;70.19;100065.00;4451483;32;20172;-76
2023/12/30 06:42:01;;;;;;;26.77;17.40;;;;;;;4.24;70.44;100056.28;4446266;32;20152;-76
2023/12/30 06:44:30;;;;;;;24.37;17.45;;;;;;;4.47;70.08;100059.72;4452206;32;20148;-76
2023/12/30 06:46:59;;;;;;;25.25;17.95;;;;;;;4.68;69.58;100057.06;4437912;32;20156;-76
2023/12/30 06:49:29;;;;;;;24.20;17.67;;;;;;;4.24;71.39;100058.91;4452167;32;20180;-76
2023/12/30 06:51:58;;;;;;;23.95;19.25;;;;;;;4.32;71.69;100063.84;4445788;32;20184;-76
2023/12/30 06:54:31;;;;;;;23.85;17.77;;;;;;;4.83;70.51;100081.81;4451890;32;20144;-76
2023/12/30 06:57:00;;;;;;;22.98;19.12;;;;;;;5.02;69.65;100070.47;4452378;32;20417;-76
2023/12/30 06:59:30;;;;;;;24.42;18.55;;;;;;;4.88;69.52;100068.47;4452089;32;20179;-76
2023/12/30 07:01:59;;;;;;;25.85;19.83;;;;;;;5.11;69.22;100070.94;4445561;32;20171;-76
2023/12/30 07:04:30;;;;;;;25.77;20.15;;;;;;;5.14;68.84;100077.81;4451942;32;20164;-76
2023/12/30 07:06:59;;;;;;;27.23;19.20;;;;;;;5.06;68.60;100086.03;4452397;32;20156;-76
2023/12/30 07:09:28;;;;;;;23.00;18.08;;;;;;;5.21;68.03;100091.53;4451965;32;20136;-76
2023/12/30 07:11:59;;;;;;;25.92;18.20;;;;;;;5.41;66.68;100091.50;4435379;32;20168;-76
2023/12/30 07:14:34;;;;;;;24.17;18.10;;;;;;;5.21;67.53;100104.69;4452033;32;20171;-76
2023/12/30 07:17:03;;;;;;;24.10;18.85;;;;;;;5.15;67.84;100098.78;4451844;32;20192;-76
2023/12/30 07:19:32;;;;;;;24.87;19.80;;;;;;;5.12;67.92;100098.06;4451849;32;20160;-76
2023/12/30 07:22:02;;;;;;;26.10;21.27;;;;;;;5.11;67.98;100106.88;4445619;32;20152;-76
2023/12/30 07:24:31;;;;;;;22.80;18.90;;;;;;;5.07;68.33;100118.44;4451810;32;20146;-75
2023/12/30 07:27:02;;;;;;;25.60;19.08;;;;;;;5.22;67.73;100115.13;4452271;32;20564;-76
2023/12/30 07:29:31;;;;;;;29.05;20.65;;;;;;;5.16;68.16;100115.41;4451808;32;20235;-76
2023/12/30 07:32:01;;;;;;;24.70;18.65;;;;;;;5.42;67.63;100116.84;4445376;32;20152;-76
2023/12/30 07:34:30;;;;;;;25.70;19.90;;;;;;;5.29;68.13;100123.59;4451819;32;20156;-76
2023/12/30 07:37:01;;;;;;;24.73;18.77;;;;;;;5.29;68.37;100120.97;4437541;32;20541;-76
2023/12/30 07:39:32;;;;;;;27.13;21.00;;;;;;;5.50;67.86;100124.41;4451760;32;20172;-76
2023/12/30 07:42:03;;;;;;;26.83;20.55;;;;;;;5.49;68.33;100127.97;4445857;32;20432;-76
2023/12/30 07:44:37;;;;;;;34.97;21.30;;;;;;;5.58;68.40;100123.16;4451725;32;20148;-76
2023/12/30 07:47:06;;;;;;;26.65;19.95;;;;;;;5.77;68.29;100110.00;4451756;32;20242;-76
2023/12/30 07:49:37;;;;;;;29.17;21.58;;;;;;;5.62;69.10;100129.09;4451465;32;20148;-75
2023/12/30 07:52:06;;;;;;;24.95;20.77;;;;;;;6.03;68.78;100116.72;4445314;32;20199;-76
2023/12/30 07:54:35;;;;;;;28.83;20.02;;;;;;;6.50;67.84;100128.53;4451692;32;20176;-75
2023/12/30 07:57:07;;;;;;;28.15;19.55;;;;;;;6.93;67.18;100131.66;4451915;32;20501;-76
2023/12/30 07:59:37;;;;;;;27.10;19.35;;;;;;;7.35;65.74;100125.97;4451693;32;20152;-76
2023/12/30 08:02:06;;;;;;;25.67;19.02;;;;;;;7.83;64.66;100129.56;4445088;32;20195;-76
2023/12/30 08:04:35;;;;;;;27.13;18.50;;;;;;;8.38;63.41;100124.75;4451530;32;20182;-74
2023/12/30 08:07:07;;;;;;;22.52;16.45;;;;;;;9.00;61.96;100135.28;4451620;32;20161;-73
2023/12/30 08:09:37;;;;;;;21.17;17.45;;;;;;;9.59;60.05;100130.81;4451518;32;20226;-73
2023/12/30 08:12:08;;;;;;;22.50;16.55;;;;;;;10.19;58.03;100131.50;4445674;32;20181;-74
2023/12/30 08:14:38;;;;;;;23.80;18.60;;;;;;;10.48;55.74;100127.00;4451512;32;20183;-74
2023/12/30 08:17:07;;;;;;;24.02;18.48;;;;;;;10.68;54.29;100133.66;4451364;32;20191;-74
2023/12/30 08:19:36;;;;;;;23.30;17.85;;;;;;;10.99;53.69;100125.34;4451459;32;20183;-74
2023/12/30 08:22:06;;;;;;;24.12;18.45;;;;;;;11.55;52.33;100128.56;4445178;32;20491;-74
2023/12/30 08:24:35;;;;;;;19.37;16.27;;;;;;;11.99;51.81;100132.59;4451498;32;20159;-74
2023/12/30 08:27:04;;;;;;;23.23;18.33;;;;;;;12.05;50.42;100134.81;4451809;32;20157;-74
2023/12/30 08:29:37;;;;;;;19.62;17.15;;;;;;;12.04;50.25;100143.75;4451440;32;20149;-74
2023/12/30 08:32:06;;;;;;;22.70;17.67;;;;;;;12.04;50.67;100138.44;4444925;32;20191;-74
2023/12/30 08:34:35;;;;;;;23.10;18.35;;;;;;;11.84;51.09;100141.66;4451299;32;20175;-74
2023/12/30 08:37:08;;;;;;;22.75;17.85;;;;;;;12.05;51.09;100141.94;4451401;32;20147;-74
2023/12/30 08:39:38;;;;;;;23.52;18.17;;;;;;;11.63;51.76;100148.44;4451386;32;20160;-74
2023/12/30 08:42:08;;;;;;;23.08;18.85;;;;;;;11.61;52.02;100145.03;4445533;32;20175;-74
2023/12/30 08:44:43;;;;;;;26.10;18.83;;;;;;;11.56;52.60;100143.56;4451342;32;20191;-74
2023/12/30 08:47:13;;;;;;;25.55;22.17;;;;;;;11.48;52.87;100143.25;4451128;32;20151;-74
2023/12/30 08:49:43;;;;;;;25.55;21.05;;;;;;;11.74;52.96;100143.22;4451129;32;20163;-74
2023/12/30 08:52:12;;;;;;;24.33;20.92;;;;;;;11.97;52.54;100141.63;4444688;32;20537;-74
2023/12/30 08:54:41;;;;;;;23.25;19.10;;;;;;;12.15;51.81;100145.59;4450911;32;20463;-74
2023/12/30 08:57:11;;;;;;;22.58;18.92;;;;;;;12.48;51.24;100141.50;4451570;32;20135;-74
2023/12/30 08:59:48;;;;;;;26.08;18.70;;;;;;;12.68;50.84;100142.69;4451159;32;20176;-74
2023/12/30 09:02:17;;;;;;;21.37;19.12;;;;;;;13.36;49.37;100139.28;4443737;32;20184;-74
2023/12/30 09:04:46;;;;;;;23.15;19.55;;;;;;;13.89;48.06;100147.56;4451213;32;20158;-75
2023/12/30 09:07:17;;;;;;;24.00;18.85;;;;;;;13.91;47.81;100156.28;4451070;32;20203;-74
2023/12/30 09:09:46;;;;;;;27.92;20.67;;;;;;;13.86;47.76;100160.28;4451133;32;20168;-74
2023/12/30 09:12:15;;;;;;;28.27;22.85;;;;;;;13.36;48.52;100163.25;4445240;32;20188;-74
2023/12/30 09:14:46;;;;;;;31.67;23.40;;;;;;;13.09;49.02;100165.31;4451078;32;20767;-74
2023/12/30 09:17:15;;;;;;;25.77;20.92;;;;;;;12.70;49.87;100162.84;4451032;32;20164;-74
2023/12/30 09:19:44;;;;;;;22.42;18.95;;;;;;;12.51;50.29;100158.06;4450892;32;20159;-74
2023/12/30 09:22:13;;;;;;;19.87;16.40;;;;;;;11.99;53.78;100167.09;4444828;32;20795;-74
2023/12/30 09:24:43;;;;;;;18.77;15.95;;;;;;;11.14;61.00;100175.66;4451018;32;20175;-74
2023/12/30 09:27:11;;;;;;;22.20;17.40;;;;;;;11.31;61.17;100172.72;4451327;32;20175;-74
2023/12/30 09:29:40;;;;;;;31.67;24.08;;;;;;;11.32;59.84;100167.31;4451152;32;20156;-74
2023/12/30 09:32:11;;;;;;;29.42;22.60;;;;;;;11.44;55.63;100164.75;4444713;32;20444;-74
2023/12/30 09:34:41;;;;;;;27.92;22.25;;;;;;;11.16;55.27;100168.44;4450647;32;20171;-74
2023/12/30 09:37:14;;;;;;;25.48;20.35;;;;;;;11.17;55.23;100167.50;4450971;32;20164;-74
2023/12/30 09:39:44;;;;;;;26.67;20.73;;;;;;;10.84;56.14;100163.50;4450400;32;20474;-74
2023/12/30 09:42:13;;;;;;;24.27;20.20;;;;;;;10.82;56.44;100155.66;4444661;32;20171;-74
2023/12/30 09:44:44;;;;;;;25.77;20.70;;;;;;;10.91;56.60;100156.84;4450776;32;20144;-74
2023/12/30 09:47:14;;;;;;;30.33;23.42;;;;;;;11.20;56.30;100175.25;4450738;32;20172;-75
2023/12/30 09:49:45;;;;;;;30.20;22.20;;;;;;;11.11;56.15;100150.19;4450597;32;20159;-74
2023/12/30 09:52:15;;;;;;;27.62;21.98;;;;;;;11.58;55.24;100160.22;4444376;32;20163;-74
2023/12/30 09:54:44;;;;;;;26.75;21.17;;;;;;;11.90;54.55;100162.44;4450394;32;20508;-74
2023/12/30 09:57:17;;;;;;;28.20;21.75;;;;;;;12.02;54.34;100152.78;4451040;32;20148;-74
2023/12/30 09:59:48;;;;;;;24.98;19.45;;;;;;;12.25;53.94;100151.97;4450405;32;20191;-74
2023/12/30 10:02:18;;;;;;;25.27;19.83;;;;;;;12.70;53.18;100151.38;4444035;32;20148;-74
2023/12/30 10:04:49;;;;;;;26.33;18.50;;;;;;;13.17;51.92;100150.47;4450412;32;20176;-74
2023/12/30 10:07:19;;;;;;;24.42;18.02;;;;;;;13.71;50.48;100154.34;4450519;32;20144;-74
2023/12/30 10:09:50;;;;;;;22.45;17.90;;;;;;;14.08;50.09;100143.44;4451644;32;20164;-74
2023/12/30 10:12:19;;;;;;;21.73;16.83;;;;;;;14.82;48.17;100141.00;4444444;32;20485;-74
2023/12/30 10:14:49;;;;;;;17.70;13.65;;;;;;;15.08;46.71;100142.31;4451716;32;20461;-74
2023/12/30 10:17:20;;;;;;;18.58;12.68;;;;;;;15.71;45.16;100128.97;4452292;32;20536;-74
2023/12/30 10:19:50;;;;;;;17.27;13.02;;;;;;;16.37;43.45;100123.13;4452357;32;20160;-74
2023/12/30 10:22:19;;;;;;;18.83;12.80;;;;;;;16.39;42.57;100124.69;4445928;32;20170;-74
2023/12/30 10:24:49;;;;;;;15.18;12.68;;;;;;;16.79;41.88;100129.13;4452214;32;20431;-74
2023/12/30 10:27:18;;;;;;;16.35;13.15;;;;;;;16.52;42.17;100128.94;4452573;32;20183;-74
2023/12/30 10:29:54;;;;;;;15.77;13.57;;;;;;;16.35;42.53;100131.31;4452088;32;20164;-74
2023/12/30 10:32:31;;;;;;;;;;;;;;;16.52;42.02;100128.94;4452477;32;20150;-74
2023/12/30 10:35:00;;;;;;;16.70;13.32;;;;;;;16.48;42.33;100118.50;4452021;32;20462;-74
2023/12/30 10:37:30;;;;;;;20.95;15.07;;;;;;;16.43;41.95;100112.75;4438005;32;20157;-74
2023/12/30 10:40:01;;;;;;;16.45;12.85;;;;;;;16.68;41.85;100119.38;4451836;32;20168;-74
2023/12/30 10:42:31;;;;;;;18.58;14.57;;;;;;;16.73;41.64;100113.62;4446563;32;20492;-74
2023/12/30 10:45:03;;;;;;;16.52;13.85;;;;;;;16.94;41.32;100110.78;4452636;32;20528;-74
2023/12/30 10:47:39;;;;;;;18.15;15.10;;;;;;;17.14;40.81;100112.47;4452012;32;20171;-74
2023/12/30 10:50:11;;;;;;;19.30;15.27;;;;;;;17.44;40.68;100102.53;4452018;32;20435;-74
2023/12/30 10:52:46;;;;;;;15.73;13.95;;;;;;;17.70;40.17;100102.75;4452161;32;20163;-74
2023/12/30 10:55:17;;;;;;;16.95;13.85;;;;;;;17.79;38.99;100088.50;4453491;32;20189;-74
2023/12/30 10:57:50;;;;;;;16.98;14.48;;;;;;;17.85;39.80;100093.25;4452110;32;20430;-74
2023/12/30 11:00:21;;;;;;;16.85;13.18;;;;;;;17.33;40.89;100094.69;4452251;32;20472;-74
2023/12/30 11:02:52;;;;;;;17.15;14.23;;;;;;;17.58;39.83;100096.72;4451704;32;20472;-74
2023/12/30 11:05:28;;;;;;;14.73;12.95;;;;;;;17.67;40.28;100092.31;4451945;32;20172;-74
2023/12/30 11:07:58;;;;;;;19.95;15.18;;;;;;;17.86;39.45;100084.22;4452055;32;20160;-74
2023/12/30 11:10:28;;;;;;;17.33;14.87;;;;;;;17.49;39.99;100086.03;4452003;32;20168;-74
2023/12/30 11:12:57;;;;;;;19.45;14.02;;;;;;;17.32;40.48;100083.12;4452022;32;20211;-74
2023/12/30 11:15:29;;;;;;;18.83;14.57;;;;;;;17.33;40.16;100087.47;4446088;32;20171;-74
2023/12/30 11:18:01;;;;;;;22.10;15.85;;;;;;;17.14;40.54;100084.84;4452389;32;20433;-74
2023/12/30 11:20:43;;;;;;;19.67;15.27;;;;;;;16.87;41.25;100094.47;4447728;32;20171;-74
2023/12/30 11:23:12;;;;;;;20.88;16.12;;;;;;;16.62;42.03;100081.63;4450915;32;20171;-74
2023/12/30 11:25:44;;;;;;;22.00;15.60;;;;;;;16.35;43.00;100079.62;4451533;32;20164;-74
2023/12/30 11:28:17;;;;;;;19.40;14.80;;;;;;;16.23;42.67;100084.25;4451975;32;20176;-74
2023/12/30 11:30:56;;;;;;;19.67;16.35;;;;;;;16.17;42.72;100082.97;4451822;32;20153;-74